Skip Navigation Links Skip Navigation Links

Current Weather

Lewis University, Romeoville, Ill.

For information only: do not use for flight planning or navigation.
Latest weather
Observation time Friday, February 28, 2020 5:10 AM CST
Local time Friday, February 28, 2020 5:42 AM CST
Flight conditions Visual Meteorological Conditions
Winds
Wind direction West-Northwest (300°)
Wind speed 6 mph
Visibility 10 mi.
Sky condition
Ceiling 7,500 ft. overcast
Cloud layer overcast 7,500 ft.
Temperature 19°F
Dewpoint 15°F
Altimeter 30.04 in.Hg
Derived measurements
Relative humidity 81%
Wind chill 11°F
Density altitude -2148 ft.
Remarks
Fully automated report.
Automated weather observing station with precipitation discriminator.
METAR KLOT 281110Z AUTO 30005KT 10SM OVC075 M07/M10 A3004 RMK AO2 T10701097

Settings

Location code

InnerDrive.Weather 4.0.6770.0 Release CLR 4.0.30319.42000
Copyright ©2018 Inner Drive Technology. All rights reserved. Portions Copyright ©1986-2018 David Braverman.

Find weather

Site navigation


Skip Navigation Links

Place info

Page info

PayPal - The safer, easier way to pay online!

Return home.

Copyright ©2020 Inner Drive Technology. Purveyors of fine, hand-crafted computer software. Page printed 2020-02-28T11:42:30 UTC.